MV Inez Andreas — WDB7752 — position and weather

sailwx.info

Track history (hours):
 
Tides and Currents Weather Stations Pressure Air Temp Water Temp Dewpoint Dewpoint Depression Visibility Wind Speed Wind Dir Waves Ship Positions

MV Inez Andreas

Owner: American River Transportation Co., Saint Louis, MO. More information available from US FCC via Universal Licensing System and Coast Guard Vessel Documentation Center.

Last reported at 2017-Oct-20 17:48 UTC. Time now 2017-Oct-22 19:17 UTC.
Position N 32°38' W 091°09'.

Length 66 m; draft 3.2 m.

Type: Towing. MMSI: 366947510.

Date/timePositionNaut miles runAvg speedWind from/ knotsBaromVisibWave heightAir tempDewpointWater temp
2017-Oct-20 17:48N 32°38' W 091°09'1 4.4
2017-Oct-20 17:30N 32°37' W 091°09'3 5.1
2017-Oct-20 17:00N 32°35' W 091°07'2 4.5
2017-Oct-20 16:30N 32°33' W 091°06'2 4.9
2017-Oct-20 16:00N 32°31' W 091°07'2 3.9
2017-Oct-20 15:30N 32°29' W 091°07'3 5.4
2017-Oct-20 15:00N 32°27' W 091°05'3 5.2
2017-Oct-20 14:30N 32°26' W 091°02'4 3.7
2017-Oct-20 13:30N 32°22' W 091°00'2 4.1
2017-Oct-20 13:00N 32°21' W 090°58'1 2.7
2017-Oct-20 12:30N 32°21' W 090°57'0 0.4
2017-Oct-20 12:00N 32°21' W 090°57'2 3.5
2017-Oct-20 11:30N 32°21' W 090°55'2 4.1
2017-Oct-20 11:00N 32°18' W 090°55'2 4.2
2017-Oct-20 10:30N 32°17' W 090°57'2 4.6
2017-Oct-20 10:00N 32°15' W 090°58'2 4.1
2017-Oct-20 09:30N 32°13' W 090°59'2 4.8
2017-Oct-20 09:00N 32°11' W 090°60'2 4.5
2017-Oct-20 08:30N 32°09' W 091°00'2 4.1
2017-Oct-20 08:00N 32°07' W 091°02'2 4.4
2017-Oct-20 07:30N 32°08' W 091°04'2 4.3
2017-Oct-20 07:00N 32°07' W 091°07'6 4.3
2017-Oct-20 05:40N 32°02' W 091°04'1 6.1
2017-Oct-20 05:29N 32°01' W 091°04'3 5.2
2017-Oct-20 04:55N 31°59' W 091°07'12 4.1
2017-Oct-20 02:02N 31°51' W 091°18'0 4.3
2017-Oct-20 02:00N 31°51' W 091°18'  
2017-Oct-14 15:19N 31°59' W 091°06'2 5.2
2017-Oct-14 15:00N 32°00' W 091°05'3 6.7
2017-Oct-14 14:30N 32°04' W 091°03'4 6.9
2017-Oct-14 13:59N 32°06' W 091°06'1 3.0
2017-Oct-14 13:30N 32°08' W 091°06'3 5.3
2017-Oct-14 13:00N 32°07' W 091°03'3 5.9
2017-Oct-14 12:30N 32°09' W 091°00'4 7.2
2017-Oct-14 12:00N 32°13' W 090°59'4 7.2
2017-Oct-14 11:30N 32°16' W 090°58'4 7.1
2017-Oct-14 11:00N 32°18' W 090°55'2 4.5
2017-Oct-14 10:30N 32°21' W 090°55'3 5.8
2017-Oct-14 10:00N 32°21' W 090°58'3 5.0
2017-Oct-14 09:30N 32°23' W 090°60'3 5.9
2017-Oct-14 09:00N 32°26' W 091°01'3 5.2
2017-Oct-14 08:30N 32°27' W 091°04'3 6.2
2017-Oct-14 08:00N 32°29' W 091°07'3 6.9
2017-Oct-14 07:30N 32°32' W 091°06'3 6.9
2017-Oct-14 07:00N 32°35' W 091°08'4 7.1
2017-Oct-14 06:30N 32°39' W 091°09'7 2.9
2017-Oct-14 04:10N 32°45' W 091°09'  
Track history (hours):
 
Tides and Currents Weather Stations Pressure Air Temp Water Temp Dewpoint Dewpoint Depression Visibility Wind Speed Wind Dir Waves Ship Positions

MV Inez Andreas

Owner: American River Transportation Co., Saint Louis, MO. More information available from US FCC via Universal Licensing System and Coast Guard Vessel Documentation Center.

Last reported at 2017-Oct-20 17:48 UTC. Time now 2017-Oct-22 19:17 UTC.
Position N 32°38' W 091°09'.

Length 66 m; draft 3.2 m.

Type: Towing. MMSI: 366947510.

Date/timePositionNaut miles runAvg speedWind from/ knotsBaromVisibWave heightAir tempDewpointWater temp
2017-Oct-20 17:48N 32°38' W 091°09'1 4.4
2017-Oct-20 17:30N 32°37' W 091°09'3 5.1
2017-Oct-20 17:00N 32°35' W 091°07'2 4.5
2017-Oct-20 16:30N 32°33' W 091°06'2 4.9
2017-Oct-20 16:00N 32°31' W 091°07'2 3.9
2017-Oct-20 15:30N 32°29' W 091°07'3 5.4
2017-Oct-20 15:00N 32°27' W 091°05'3 5.2
2017-Oct-20 14:30N 32°26' W 091°02'4 3.7
2017-Oct-20 13:30N 32°22' W 091°00'2 4.1
2017-Oct-20 13:00N 32°21' W 090°58'1 2.7
2017-Oct-20 12:30N 32°21' W 090°57'0 0.4
2017-Oct-20 12:00N 32°21' W 090°57'2 3.5
2017-Oct-20 11:30N 32°21' W 090°55'2 4.1
2017-Oct-20 11:00N 32°18' W 090°55'2 4.2
2017-Oct-20 10:30N 32°17' W 090°57'2 4.6
2017-Oct-20 10:00N 32°15' W 090°58'2 4.1
2017-Oct-20 09:30N 32°13' W 090°59'2 4.8
2017-Oct-20 09:00N 32°11' W 090°60'2 4.5
2017-Oct-20 08:30N 32°09' W 091°00'2 4.1
2017-Oct-20 08:00N 32°07' W 091°02'2 4.4
2017-Oct-20 07:30N 32°08' W 091°04'2 4.3
2017-Oct-20 07:00N 32°07' W 091°07'6 4.3
2017-Oct-20 05:40N 32°02' W 091°04'1 6.1
2017-Oct-20 05:29N 32°01' W 091°04'3 5.2
2017-Oct-20 04:55N 31°59' W 091°07'12 4.1
2017-Oct-20 02:02N 31°51' W 091°18'0 4.3
2017-Oct-20 02:00N 31°51' W 091°18'  
2017-Oct-14 15:19N 31°59' W 091°06'2 5.2
2017-Oct-14 15:00N 32°00' W 091°05'3 6.7
2017-Oct-14 14:30N 32°04' W 091°03'4 6.9
2017-Oct-14 13:59N 32°06' W 091°06'1 3.0
2017-Oct-14 13:30N 32°08' W 091°06'3 5.3
2017-Oct-14 13:00N 32°07' W 091°03'3 5.9
2017-Oct-14 12:30N 32°09' W 091°00'4 7.2
2017-Oct-14 12:00N 32°13' W 090°59'4 7.2
2017-Oct-14 11:30N 32°16' W 090°58'4 7.1
2017-Oct-14 11:00N 32°18' W 090°55'2 4.5
2017-Oct-14 10:30N 32°21' W 090°55'3 5.8
2017-Oct-14 10:00N 32°21' W 090°58'3 5.0
2017-Oct-14 09:30N 32°23' W 090°60'3 5.9
2017-Oct-14 09:00N 32°26' W 091°01'3 5.2
2017-Oct-14 08:30N 32°27' W 091°04'3 6.2
2017-Oct-14 08:00N 32°29' W 091°07'3 6.9
2017-Oct-14 07:30N 32°32' W 091°06'3 6.9
2017-Oct-14 07:00N 32°35' W 091°08'4 7.1
2017-Oct-14 06:30N 32°39' W 091°09'7 2.9
2017-Oct-14 04:10N 32°45' W 091°09'  

Dump ship's entire track history